Nearby METAR Reports

 

KMTN - Baltimore/Martin, Maryland, USA
Distance from station: SSE 8mi, 13km
Updated: Sat, 19-Apr-2014 2:42am EDT
Clear
Clear
 Wind from calm
Wind: Calm
Temperature: 43°F , 6°C
Dew Point: 37°F , 3°C
Humidity: 81%
Barometer: 30.27 inHg , 1025.1 hPa
Clouds: Clear
Visibility: 10 miles , 16 km
2014/04/19 06:42 KMTN 190642Z AUTO 00000KT 10SM CLR 06/03 A3027 RMK AO2
KDMH - Baltimore/Dwntwn, Maryland, USA
Distance from station: SW 12mi, 19km
Updated: Sat, 19-Apr-2014 1:54am EDT

 
Temperature: 48°F , 9°C
Dew Point: 36°F , 2°C
Humidity: 62%
Barometer: 30.27 inHg , 1025.1 hPa
2014/04/19 05:54 KDMH 190554Z AUTO 09/02 A3027 RMK AO1 SLP250 T00890022 10106 20089 58011
 
KBWI - Balto/Wash Intl, Maryland, USA
Distance from station: SSW 20mi, 33km
Updated: Sat, 19-Apr-2014 1:54am EDT
Overcast
Overcast
 Wind from calm
Wind: Calm
Temperature: 43°F , 6°C
Dew Point: 36°F , 2°C
Humidity: 76%
Barometer: 30.26 inHg , 1024.7 hPa
Clouds: Overcast
Visibility: 10 miles , 16 km
Cloud details: Overcast 25000 ft
2014/04/19 05:54 KBWI 190554Z 00000KT 10SM OVC250 06/02 A3026 RMK AO2 SLP248 T00560017 10094 20056 58009
KDMW - Carroll Cnty, Maryland, USA
Distance from station: WNW 30mi, 48km
Updated: Sat, 19-Apr-2014 2:40am EDT
Clear
Clear
 Wind from calm
Wind: Calm
Temperature: 45°F , 7°C
Dew Point: 36°F , 2°C
Humidity: 71%
Barometer: 30.24 inHg , 1024 hPa
Clouds: Clear
Visibility: 10 miles , 16 km
2014/04/19 06:40 KDMW 190640Z AUTO 00000KT 10SM CLR 07/02 A3024 RMK AO2
 
KNAK - Annapolis/Naval, Maryland, USA
Distance from station: S 30mi, 48km
Updated: Sat, 19-Apr-2014 1:54am EDT
Clear
Clear
 Wind from calm
Wind: Calm
Temperature: 46°F , 8°C
Dew Point: 39°F , 4°C
Humidity: 76%
Barometer: 30.27 inHg , 1025.1 hPa
Clouds: Clear
Visibility: 10 miles , 16 km
2014/04/19 05:54 KNAK 190554Z AUTO 00000KT 10SM CLR 08/04 A3027 RMK AO2 SLP251 T00780044 10100 20078 58009
KW29 - Stevensville, Maryland, USA
Distance from station: SSE 31mi, 50km
Updated: Sat, 19-Apr-2014 2:41am EDT
Clear
Clear
 Wind from calm
Wind: Calm
Temperature: 45°F , 7°C
Dew Point: 41°F , 5°C
Humidity: 87%
Barometer: 30.26 inHg , 1024.7 hPa
Clouds: Clear
Visibility: 10 miles , 16 km
2014/04/19 06:41 KW29 190641Z AUTO 00000KT 10SM CLR 07/05 A3026 RMK AO1
 
KCGS - College Park, Maryland, USA
Distance from station: SW 38mi, 61km
Updated: Sat, 19-Apr-2014 2:40am EDT
Clear
Clear
 Wind from calm
Wind: Calm
Temperature: 43°F , 6°C
Dew Point: 37°F , 3°C
Humidity: 81%
Barometer: 30.25 inHg , 1024.4 hPa
Clouds: Clear
Visibility: 10 miles , 16 km
2014/04/19 06:40 KCGS 190640Z AUTO 00000KT 10SM CLR 06/03 A3025 RMK AO1
KGAI - Gaithersburg, Maryland, USA
Distance from station: WSW 40mi, 65km
Updated: Sat, 19-Apr-2014 2:35am EDT
Clear
Clear
 Wind from calm
Wind: Calm
Temperature: 41°F , 5°C
Dew Point: 36°F , 2°C
Humidity: 81%
Barometer: 30.27 inHg , 1025.1 hPa
Clouds: Clear
Visibility: 10 miles , 16 km
2014/04/19 06:35 KGAI 190635Z AUTO 00000KT 10SM CLR 05/02 A3027 RMK AO1
 
KTHV - York, Pennsylvania, USA
Distance from station: NNW 40mi, 65km
Updated: Sat, 19-Apr-2014 1:53am EDT
Clear
Clear
 Wind from calm
Wind: Calm
Temperature: 39°F , 4°C
Dew Point: 36°F , 2°C
Humidity: 87%
Barometer: 30.25 inHg , 1024.4 hPa
Clouds: Clear
Visibility: 10 miles , 16 km
2014/04/19 05:53 KTHV 190553Z AUTO 00000KT 10SM CLR 04/02 A3025 RMK AO2 SLP250 T00390017 10106 20033 56006
KFDK - Frederick, Maryland, USA
Distance from station: W 47mi, 75km
Updated: Sat, 19-Apr-2014 2:40am EDT
Clear
Clear
 Wind from calm
Wind: Calm
Temperature: 39°F , 4°C
Dew Point: 39°F , 4°C
Humidity: 100%
Barometer: 30.28 inHg , 1025.4 hPa
Clouds: Clear
Visibility: 10 miles , 16 km
2014/04/19 06:40 KFDK 190640Z AUTO 00000KT 10SM CLR 04/04 A3028 RMK AO2
 
KESN - Easton/Newnam, Maryland, USA
Distance from station: SSE 48mi, 78km
Updated: Sat, 19-Apr-2014 2:51am EDT
Clear
Clear
 Wind from calm
Wind: Calm
Temperature: 45°F , 7°C
Dew Point: 43°F , 6°C
Humidity: 93%
Barometer: 30.29 inHg , 1025.7 hPa
Clouds: Clear
Visibility: 10 miles , 16 km
2014/04/19 06:51 KESN 190651Z AUTO 00000KT 10SM CLR 07/06 A3029 RMK AO2 T00730060
KDCA - Washington/Natl, Washington D.c., USA
Distance from station: SW 49mi, 79km
Updated: Sat, 19-Apr-2014 1:52am EDT
Overcast
Overcast
 Wind from SSW
Wind: SSW 6 mph , 9 km/h
Temperature: 48°F , 9°C
Wind Chill: 45°F , 7°C
Dew Point: 37°F , 3°C
Humidity: 66%
Barometer: 30.28 inHg , 1025.4 hPa
Clouds: Overcast
Visibility: 10 miles , 16 km
Cloud details: Overcast 25000 ft
2014/04/19 05:52 KDCA 190552Z 20005KT 10SM OVC250 09/03 A3028 RMK AO2 SLP252 T00940028 10111 20094 58009
 
KLNS - Lancaster, Pennsylvania, USA
Distance from station: N 49mi, 79km
Updated: Sat, 19-Apr-2014 1:53am EDT
Clear
Clear
 Wind from calm
Wind: Calm
Temperature: 43°F , 6°C
Dew Point: 32°F , 0°C
Humidity: 66%
Barometer: 30.26 inHg , 1024.7 hPa
Clouds: Clear
Visibility: 10 miles , 16 km
2014/04/19 05:53 KLNS 190553Z AUTO 00000KT 10SM CLR 06/00 A3026 RMK AO2 SLP247 T00610000 10094 20056 56008
KILG - Wilmington, Delaware, USA
Distance from station: ENE 50mi, 81km
Updated: Sat, 19-Apr-2014 1:51am EDT
Clear
Clear
 Wind from S
Wind: S 6 mph , 9 km/h
Temperature: 43°F , 6°C
Wind Chill: 39°F , 4°C
Dew Point: 37°F , 3°C
Humidity: 81%
Barometer: 30.27 inHg , 1025.1 hPa
Clouds: Clear
Visibility: 10 miles , 16 km
2014/04/19 05:51 KILG 190551Z AUTO 18005KT 10SM CLR 06/03 A3027 RMK AO2 SLP250 T00610033 10094 20061 56014